createdAt,value
2018-08-06T00:00:44.654Z,19.80
2018-08-06T00:03:13.868Z,19.74
2018-08-06T00:05:44.653Z,19.66
2018-08-06T00:08:14.101Z,19.59
2018-08-06T00:10:45.029Z,19.57
2018-08-06T00:13:14.450Z,19.55
2018-08-06T00:15:44.864Z,19.54
2018-08-06T00:18:14.048Z,19.53
2018-08-06T00:20:45.140Z,19.52
2018-08-06T00:23:14.291Z,19.45
2018-08-06T00:25:44.565Z,19.46
2018-08-06T00:28:14.065Z,19.29
2018-08-06T00:30:43.758Z,19.26
2018-08-06T00:33:13.051Z,19.19
2018-08-06T00:35:44.065Z,19.10
2018-08-06T00:38:14.033Z,19.04
2018-08-06T00:40:45.700Z,19.04
2018-08-06T00:43:14.708Z,19.04
2018-08-06T00:45:44.996Z,19.02
2018-08-06T00:48:14.514Z,18.97
2018-08-06T00:50:44.821Z,19.04
2018-08-06T00:53:14.092Z,19.05
2018-08-06T00:55:44.072Z,19.01
2018-08-06T00:58:13.265Z,18.93
2018-08-06T01:00:45.028Z,18.93
2018-08-06T01:03:14.690Z,18.87
2018-08-06T01:05:45.556Z,18.80
2018-08-06T01:08:14.505Z,18.69
2018-08-06T01:10:44.586Z,18.69
2018-08-06T01:13:13.863Z,18.58
2018-08-06T01:15:44.888Z,18.54
2018-08-06T01:18:14.591Z,18.47
2018-08-06T01:20:45.461Z,18.50
2018-08-06T01:23:14.314Z,18.47
2018-08-06T01:25:44.952Z,18.44
2018-08-06T01:28:14.106Z,18.37
2018-08-06T01:30:44.597Z,18.39
2018-08-06T01:33:14.089Z,18.38
2018-08-06T01:35:44.935Z,18.38
2018-08-06T01:38:14.044Z,18.34
2018-08-06T01:40:44.457Z,18.36
2018-08-06T01:43:13.537Z,18.37
2018-08-06T01:45:45.799Z,18.33
2018-08-06T01:48:15.124Z,18.29
2018-08-06T01:50:45.738Z,18.20
2018-08-06T01:53:14.912Z,18.14
2018-08-06T01:55:45.701Z,18.02
2018-08-06T01:58:14.960Z,17.93
2018-08-06T02:00:45.191Z,17.95
2018-08-06T02:03:14.768Z,17.98
2018-08-06T02:05:44.804Z,17.84
2018-08-06T02:08:14.104Z,17.90
2018-08-06T02:10:44.120Z,17.90
2018-08-06T02:13:13.244Z,17.91
2018-08-06T02:15:43.309Z,18.00
2018-08-06T02:18:12.480Z,18.01
2018-08-06T02:20:43.092Z,17.98
2018-08-06T02:23:12.700Z,17.99
2018-08-06T02:25:43.996Z,17.99
2018-08-06T02:28:13.561Z,17.93
2018-08-06T02:30:43.825Z,17.83
2018-08-06T02:33:13.048Z,17.81
2018-08-06T02:35:44.576Z,17.81
2018-08-06T02:38:13.724Z,17.80
2018-08-06T02:40:43.511Z,17.79
2018-08-06T02:43:13.208Z,17.75
2018-08-06T02:45:44.138Z,17.70
2018-08-06T02:48:13.356Z,17.66
2018-08-06T02:50:44.219Z,17.67
2018-08-06T02:53:13.067Z,17.60
2018-08-06T02:55:44.620Z,17.65
2018-08-06T02:58:13.839Z,17.62
2018-08-06T03:00:43.373Z,17.66
2018-08-06T03:03:12.429Z,17.62
2018-08-06T03:05:44.300Z,17.50
2018-08-06T03:08:13.575Z,17.53
2018-08-06T03:10:43.553Z,17.46
2018-08-06T03:13:12.807Z,17.40
2018-08-06T03:15:43.205Z,17.40
2018-08-06T03:18:12.304Z,17.37
2018-08-06T03:20:42.888Z,17.34
2018-08-06T03:23:12.044Z,17.29
2018-08-06T03:25:42.771Z,17.22
2018-08-06T03:28:12.479Z,17.09
2018-08-06T03:30:43.510Z,17.10
2018-08-06T03:33:12.723Z,17.09
2018-08-06T03:35:44.026Z,17.01
2018-08-06T03:38:13.232Z,17.01
2018-08-06T03:40:43.392Z,16.96
2018-08-06T03:43:12.641Z,16.90
2018-08-06T03:45:43.704Z,16.88
2018-08-06T03:48:13.368Z,16.87
2018-08-06T03:50:44.066Z,16.82
2018-08-06T03:53:13.276Z,16.83
2018-08-06T03:55:44.841Z,16.84
2018-08-06T03:58:14.021Z,16.73
2018-08-06T04:00:43.792Z,16.68
2018-08-06T04:03:13.236Z,16.71
2018-08-06T04:05:43.750Z,16.69
2018-08-06T04:08:13.120Z,16.61
2018-08-06T04:10:43.903Z,16.57
2018-08-06T04:13:13.155Z,16.59
2018-08-06T04:15:44.815Z,16.62
2018-08-06T04:18:14.117Z,16.64
2018-08-06T04:20:45.398Z,16.68
2018-08-06T04:23:14.597Z,16.64
2018-08-06T04:25:45.707Z,16.73
2018-08-06T04:28:15.292Z,16.68
2018-08-06T04:30:45.187Z,16.71
2018-08-06T04:33:14.425Z,16.79
2018-08-06T04:35:46.024Z,16.82
2018-08-06T04:38:15.976Z,16.90
2018-08-06T04:40:47.417Z,16.87
2018-08-06T04:43:16.596Z,16.97
2018-08-06T04:45:46.427Z,16.99
2018-08-06T04:48:15.708Z,17.07
2018-08-06T04:50:46.034Z,17.03
2018-08-06T04:53:16.044Z,17.14
2018-08-06T04:55:47.475Z,17.18
2018-08-06T04:58:17.512Z,17.24
2018-08-06T05:00:49.589Z,17.27
2018-08-06T05:03:19.402Z,17.39
2018-08-06T05:05:50.412Z,17.47
2018-08-06T05:08:21.304Z,17.53
2018-08-06T05:10:50.441Z,17.62
2018-08-06T05:13:19.665Z,17.71
2018-08-06T05:15:50.900Z,17.82
2018-08-06T05:18:21.460Z,17.98
2018-08-06T05:20:51.448Z,18.23
2018-08-06T05:23:21.960Z,18.40
2018-08-06T05:25:51.788Z,18.55
2018-08-06T05:28:21.709Z,18.71
2018-08-06T05:30:51.615Z,18.76
2018-08-06T05:33:20.856Z,18.86
2018-08-06T05:35:51.383Z,18.92
2018-08-06T05:38:21.142Z,19.10
2018-08-06T05:40:51.465Z,19.25
2018-08-06T05:43:20.721Z,19.38
2018-08-06T05:45:50.884Z,19.53
2018-08-06T05:48:21.117Z,19.52
2018-08-06T05:50:50.629Z,19.61
2018-08-06T05:53:20.556Z,19.95
2018-08-06T05:55:50.516Z,20.04
2018-08-06T05:58:19.637Z,20.33
2018-08-06T06:00:49.626Z,20.51
2018-08-06T06:03:20.141Z,20.66
2018-08-06T06:05:50.669Z,20.94
2018-08-06T06:08:19.972Z,21.00
2018-08-06T06:10:51.063Z,21.11
2018-08-06T06:13:20.280Z,20.85
2018-08-06T06:15:49.920Z,21.07
2018-08-06T06:18:19.323Z,20.68
2018-08-06T06:20:49.800Z,20.87
2018-08-06T06:23:19.145Z,21.10
2018-08-06T06:25:49.300Z,21.31
2018-08-06T06:28:18.472Z,21.08
2018-08-06T06:30:49.187Z,21.20
2018-08-06T06:33:18.712Z,21.49
2018-08-06T06:35:48.777Z,21.67
2018-08-06T06:38:18.112Z,22.17
2018-08-06T06:40:48.528Z,21.98
2018-08-06T06:43:17.860Z,21.98
2018-08-06T06:45:49.300Z,22.03
2018-08-06T06:48:18.519Z,22.22
2018-08-06T06:50:48.908Z,22.45
2018-08-06T06:53:19.018Z,22.46
2018-08-06T06:55:50.088Z,23.02
2018-08-06T06:58:19.206Z,23.06
2018-08-06T07:00:50.384Z,23.18
2018-08-06T07:03:20.455Z,23.64
2018-08-06T07:05:50.972Z,23.70
2018-08-06T07:08:20.053Z,24.22
2018-08-06T07:10:50.453Z,23.24
2018-08-06T07:13:19.855Z,23.11
2018-08-06T07:15:50.203Z,23.55
2018-08-06T07:18:19.408Z,24.07
2018-08-06T07:20:49.794Z,24.86
2018-08-06T07:23:20.289Z,25.59
2018-08-06T07:25:50.706Z,27.63
2018-08-06T07:28:19.880Z,29.07
2018-08-06T07:30:50.252Z,27.76
2018-08-06T07:33:19.911Z,28.35
2018-08-06T07:35:49.965Z,31.01
2018-08-06T07:38:19.309Z,29.37
2018-08-06T07:40:49.789Z,29.47
2018-08-06T07:43:19.179Z,29.86
2018-08-06T07:45:49.177Z,32.57
2018-08-06T07:48:18.480Z,32.17
2018-08-06T07:50:48.217Z,28.36
2018-08-06T07:53:17.461Z,30.67
2018-08-06T07:55:47.480Z,30.00
2018-08-06T07:58:16.632Z,31.22
2018-08-06T08:00:46.958Z,30.19
2018-08-06T08:03:16.256Z,28.80
2018-08-06T08:05:46.755Z,31.47
2018-08-06T08:08:16.543Z,32.32
2018-08-06T08:10:45.913Z,30.72
2018-08-06T08:13:15.172Z,30.51
2018-08-06T08:15:44.459Z,29.80
2018-08-06T08:18:13.701Z,30.75
2018-08-06T08:20:42.712Z,32.46
2018-08-06T08:23:11.792Z,32.01
2018-08-06T08:25:40.980Z,33.50
2018-08-06T08:28:10.241Z,33.43
2018-08-06T08:30:39.380Z,34.97
2018-08-06T08:33:08.672Z,32.60
2018-08-06T08:35:37.859Z,33.43
2018-08-06T08:38:07.336Z,32.74
2018-08-06T08:40:36.668Z,31.89
2018-08-06T08:43:05.831Z,32.90
2018-08-06T08:45:35.452Z,34.98
2018-08-06T08:48:05.064Z,35.03
2018-08-06T08:50:34.404Z,33.63
2018-08-06T08:53:03.734Z,33.92
2018-08-06T08:55:33.035Z,34.58
2018-08-06T08:58:02.616Z,33.73
2018-08-06T09:00:32.080Z,32.56
2018-08-06T09:03:01.292Z,33.68
2018-08-06T09:05:30.496Z,33.52
2018-08-06T09:07:59.694Z,32.96
2018-08-06T09:10:28.963Z,33.20
2018-08-06T09:12:58.113Z,33.75
2018-08-06T09:15:28.072Z,36.36
2018-08-06T09:17:57.310Z,36.32
2018-08-06T09:20:27.185Z,36.50
2018-08-06T09:22:57.184Z,33.55
2018-08-06T09:25:27.152Z,33.83
2018-08-06T09:27:56.322Z,35.55
2018-08-06T09:30:25.910Z,38.13
2018-08-06T09:32:56.556Z,38.34
2018-08-06T09:35:27.290Z,39.29
2018-08-06T09:37:56.567Z,38.22
2018-08-06T09:40:25.727Z,35.32
2018-08-06T09:42:55.200Z,34.26
2018-08-06T09:45:24.782Z,36.45
2018-08-06T09:47:54.760Z,38.10
2018-08-06T09:50:24.880Z,37.63
2018-08-06T09:52:54.466Z,38.17
2018-08-06T09:55:26.406Z,40.23
2018-08-06T09:57:55.856Z,39.74
2018-08-06T10:00:30.640Z,38.20
2018-08-06T10:03:01.098Z,38.27
2018-08-06T10:05:30.578Z,37.47
2018-08-06T10:08:00.204Z,39.09
2018-08-06T10:10:29.378Z,38.85
2018-08-06T10:12:58.581Z,40.23
2018-08-06T10:15:28.006Z,38.46
2018-08-06T10:17:58.067Z,36.84
2018-08-06T10:20:27.526Z,38.78
2018-08-06T10:22:56.668Z,39.40
2018-08-06T10:25:26.228Z,41.57
2018-08-06T10:27:55.276Z,39.69
2018-08-06T10:30:24.656Z,39.52
2018-08-06T10:32:53.976Z,40.96
2018-08-06T10:35:24.335Z,42.31
2018-08-06T10:37:53.590Z,41.16
2018-08-06T10:40:24.445Z,39.28
2018-08-06T10:42:53.579Z,39.90
2018-08-06T10:45:24.420Z,40.86
2018-08-06T10:47:53.734Z,40.71
2018-08-06T10:50:23.320Z,40.85
2018-08-06T10:52:52.524Z,41.17
2018-08-06T10:55:21.612Z,40.13
2018-08-06T10:57:50.939Z,40.79
2018-08-06T11:00:21.091Z,39.85
2018-08-06T11:02:50.716Z,40.24
2018-08-06T11:05:20.564Z,41.76
2018-08-06T11:07:49.884Z,42.47
2018-08-06T11:10:21.318Z,41.64
2018-08-06T11:12:50.464Z,39.79
2018-08-06T11:15:21.783Z,40.62
2018-08-06T11:17:50.956Z,40.80
2018-08-06T11:20:20.887Z,40.82
2018-08-06T11:22:50.085Z,41.66
2018-08-06T11:25:21.775Z,40.74
2018-08-06T11:27:50.884Z,39.85
2018-08-06T11:30:22.681Z,40.02
2018-08-06T11:32:52.541Z,40.22
2018-08-06T11:35:21.800Z,39.30
2018-08-06T11:37:51.667Z,40.36
2018-08-06T11:40:21.767Z,40.54
2018-08-06T11:42:50.873Z,40.61
2018-08-06T11:45:22.243Z,40.34
2018-08-06T11:47:52.052Z,40.52
2018-08-06T11:50:21.203Z,38.65
2018-08-06T11:52:50.644Z,39.72
2018-08-06T11:55:19.754Z,37.11
2018-08-06T11:57:49.820Z,37.56
2018-08-06T12:00:22.310Z,37.92
2018-08-06T12:02:51.878Z,39.51
2018-08-06T12:05:21.018Z,39.63
2018-08-06T12:07:50.245Z,40.08
2018-08-06T12:10:20.157Z,39.46
2018-08-06T12:12:50.031Z,40.10
2018-08-06T12:15:19.249Z,39.43
2018-08-06T12:17:48.291Z,39.01
2018-08-06T12:20:19.742Z,39.27
2018-08-06T12:22:50.019Z,40.42
2018-08-06T12:25:19.636Z,39.34
2018-08-06T12:27:49.541Z,39.50
2018-08-06T12:30:21.656Z,40.53
2018-08-06T12:32:51.511Z,40.86
2018-08-06T12:35:20.750Z,41.96
2018-08-06T12:37:50.275Z,41.52
2018-08-06T12:40:20.619Z,41.18
2018-08-06T12:42:49.905Z,40.90
2018-08-06T12:45:19.307Z,40.55
2018-08-06T12:47:48.620Z,40.60
2018-08-06T12:50:18.181Z,39.87
2018-08-06T12:52:47.880Z,40.37
2018-08-06T12:55:17.920Z,39.08
2018-08-06T12:57:58.743Z,39.44
2018-08-06T13:00:36.907Z,38.96
2018-08-06T13:03:08.161Z,39.33
2018-08-06T13:05:38.037Z,40.20
2018-08-06T13:08:10.064Z,40.55
2018-08-06T13:10:43.638Z,40.62
2018-08-06T13:13:14.885Z,40.99
2018-08-06T13:15:50.449Z,41.20
2018-08-06T13:18:25.292Z,41.51
2018-08-06T13:21:01.610Z,41.48
2018-08-06T13:23:34.535Z,40.81
2018-08-06T13:26:04.430Z,40.33
2018-08-06T13:28:49.565Z,39.15
2018-08-06T13:31:27.301Z,40.16
2018-08-06T13:34:02.436Z,40.66
2018-08-06T13:36:32.670Z,41.01
2018-08-06T13:39:10.365Z,40.14
2018-08-06T13:41:49.521Z,40.00
2018-08-06T13:44:28.719Z,41.07
2018-08-06T13:47:14.327Z,41.18
2018-08-06T13:49:48.065Z,42.12
2018-08-06T13:52:22.885Z,42.17
2018-08-06T13:55:08.477Z,41.61
2018-08-06T13:57:42.966Z,41.86
2018-08-06T14:00:22.813Z,40.17
2018-08-06T14:03:00.736Z,38.89
2018-08-06T14:05:37.977Z,38.78
2018-08-06T14:08:08.871Z,39.49
2018-08-06T14:10:40.018Z,40.11
2018-08-06T14:13:11.506Z,41.30
2018-08-06T14:15:45.384Z,41.88
2018-08-06T14:18:16.359Z,41.73
2018-08-06T14:20:50.168Z,42.65
2018-08-06T14:23:23.302Z,42.64
2018-08-06T14:25:55.667Z,42.02
2018-08-06T14:28:29.031Z,41.80
2018-08-06T14:31:01.009Z,40.82
2018-08-06T14:33:36.356Z,40.80
2018-08-06T14:36:15.585Z,41.36
2018-08-06T14:38:47.322Z,41.38
2018-08-06T14:41:20.417Z,40.00
2018-08-06T14:43:53.968Z,40.67
2018-08-06T14:46:29.158Z,41.16
2018-08-06T14:51:46.632Z,41.87
2018-08-06T14:54:20.541Z,41.68
2018-08-06T14:56:49.601Z,41.57
2018-08-06T14:59:18.715Z,41.16
2018-08-06T15:01:47.896Z,41.20
2018-08-06T15:04:16.982Z,40.65
2018-08-06T15:06:46.301Z,41.06
2018-08-06T15:09:15.183Z,40.14
2018-08-06T15:11:44.443Z,39.49
2018-08-06T15:14:13.660Z,39.44
2018-08-06T15:16:42.778Z,39.38
2018-08-06T15:19:11.987Z,39.48
2018-08-06T15:21:40.943Z,38.73
2018-08-06T15:24:10.049Z,38.51
2018-08-06T15:26:39.268Z,38.31
2018-08-06T15:29:08.440Z,38.07
2018-08-06T15:31:38.001Z,37.65
2018-08-06T15:34:07.640Z,37.54
2018-08-06T15:36:36.684Z,37.18
2018-08-06T15:39:09.151Z,37.21
2018-08-06T15:41:38.092Z,37.24
2018-08-06T15:44:07.519Z,36.85
2018-08-06T15:46:37.007Z,36.67
2018-08-06T15:49:06.325Z,36.61
2018-08-06T15:51:35.615Z,36.63
2018-08-06T15:54:05.015Z,36.41
2018-08-06T15:56:34.100Z,35.94
2018-08-06T15:59:03.192Z,36.21
2018-08-06T16:01:32.656Z,36.21
2018-08-06T16:04:01.948Z,35.99
2018-08-06T16:06:31.040Z,36.21
2018-08-06T16:09:00.537Z,35.84
2018-08-06T16:11:29.717Z,35.89
2018-08-06T16:13:59.096Z,35.96
2018-08-06T16:16:28.413Z,36.06
2018-08-06T16:18:57.616Z,36.20
2018-08-06T16:21:26.804Z,36.00
2018-08-06T16:23:56.312Z,35.96
2018-08-06T16:26:25.702Z,35.96
2018-08-06T16:28:55.000Z,35.96
2018-08-06T16:31:24.208Z,35.91
2018-08-06T16:33:53.800Z,35.89
2018-08-06T16:36:22.895Z,35.70
2018-08-06T16:38:52.312Z,35.44
2018-08-06T16:41:21.536Z,35.52
2018-08-06T16:43:50.752Z,35.38
2018-08-06T16:46:20.349Z,35.13
2018-08-06T16:48:49.440Z,34.93
2018-08-06T16:51:18.628Z,34.88
2018-08-06T16:53:47.868Z,34.84
2018-08-06T16:56:16.933Z,34.63
2018-08-06T16:58:46.041Z,34.59
2018-08-06T17:01:15.648Z,34.33
2018-08-06T17:03:44.788Z,34.52
2018-08-06T17:06:14.017Z,34.64
2018-08-06T17:08:43.536Z,34.35
2018-08-06T17:11:12.592Z,34.50
2018-08-06T17:13:41.712Z,34.25
2018-08-06T17:16:11.224Z,34.14
2018-08-06T17:18:40.308Z,34.11
2018-08-06T17:21:09.584Z,34.12
2018-08-06T17:23:39.088Z,34.01
2018-08-06T17:26:08.164Z,33.79
2018-08-06T17:28:37.425Z,33.78
2018-08-06T17:31:06.904Z,33.69
2018-08-06T17:33:35.984Z,33.48
2018-08-06T17:36:05.801Z,33.47
2018-08-06T17:38:35.213Z,33.36
2018-08-06T17:41:04.340Z,33.38
2018-08-06T17:43:33.544Z,33.27
2018-08-06T17:46:02.936Z,33.24
2018-08-06T17:48:32.091Z,33.05
2018-08-06T17:51:01.127Z,32.95
2018-08-06T17:53:30.736Z,32.85
2018-08-06T17:55:59.844Z,32.75
2018-08-06T17:58:29.031Z,32.56
2018-08-06T18:00:58.116Z,32.39
2018-08-06T18:03:27.136Z,32.23
2018-08-06T18:05:56.252Z,32.18
2018-08-06T18:08:25.516Z,31.93
2018-08-06T18:10:54.712Z,31.76
2018-08-06T18:13:23.873Z,31.58
2018-08-06T18:15:53.300Z,31.37
2018-08-06T18:18:22.724Z,31.28
2018-08-06T18:20:51.924Z,31.15
2018-08-06T18:23:21.296Z,30.97
2018-08-06T18:25:50.396Z,30.78
2018-08-06T18:28:19.492Z,30.58
2018-08-06T18:30:49.013Z,30.42
2018-08-06T18:33:18.220Z,30.29
2018-08-06T18:35:47.361Z,30.15
2018-08-06T18:38:16.712Z,30.06
2018-08-06T18:40:45.889Z,29.92
2018-08-06T18:43:15.137Z,29.81
2018-08-06T18:45:44.585Z,29.66
2018-08-06T18:48:13.665Z,29.54
2018-08-06T18:50:42.860Z,29.43
2018-08-06T18:53:12.188Z,29.38
2018-08-06T18:55:41.575Z,29.28
2018-08-06T18:58:10.812Z,29.04
2018-08-06T19:00:40.338Z,28.99
2018-08-06T19:03:09.472Z,28.77
2018-08-06T19:05:38.487Z,28.62
2018-08-06T19:08:08.089Z,28.44
2018-08-06T19:10:37.281Z,28.33
2018-08-06T19:13:11.864Z,28.22
2018-08-06T19:15:40.924Z,28.05
2018-08-06T19:18:15.712Z,27.99
2018-08-06T19:20:44.828Z,27.76
2018-08-06T19:23:14.008Z,27.61
2018-08-06T19:25:43.723Z,27.43
2018-08-06T19:28:12.937Z,27.14
2018-08-06T19:30:47.780Z,26.86
2018-08-06T19:33:17.042Z,26.68
2018-08-06T19:35:46.140Z,26.79
2018-08-06T19:38:15.459Z,26.70
2018-08-06T19:40:44.761Z,26.62
2018-08-06T19:43:19.272Z,26.52
2018-08-06T19:45:48.472Z,26.45
2018-08-06T19:48:17.668Z,26.31
2018-08-06T19:50:47.200Z,26.21
2018-08-06T19:53:16.355Z,26.13
2018-08-06T19:55:50.832Z,26.08
2018-08-06T19:58:19.979Z,26.02
2018-08-06T20:00:49.096Z,26.00
2018-08-06T20:03:18.724Z,25.85
2018-08-06T20:05:47.855Z,25.77
2018-08-06T20:08:17.041Z,25.68
2018-08-06T20:10:46.420Z,25.54
2018-08-06T20:13:15.600Z,25.44
2018-08-06T20:15:44.796Z,25.36
2018-08-06T20:18:13.996Z,25.28
2018-08-06T20:20:43.192Z,25.14
2018-08-06T20:23:12.537Z,25.05
2018-08-06T20:25:42.130Z,25.01
2018-08-06T20:28:11.295Z,24.97
2018-08-06T20:30:40.310Z,24.90
2018-08-06T20:33:09.392Z,24.69
2018-08-06T20:35:38.560Z,24.56
2018-08-06T20:38:07.801Z,24.49
2018-08-06T20:40:37.172Z,24.45
2018-08-06T20:43:06.353Z,24.39
2018-08-06T20:45:35.784Z,24.34
2018-08-06T20:48:05.541Z,24.22
2018-08-06T20:50:34.668Z,24.20
2018-08-06T20:53:03.804Z,24.24
2018-08-06T20:55:32.971Z,24.19
2018-08-06T20:58:02.212Z,24.18
2018-08-06T21:00:31.606Z,24.18
2018-08-06T21:03:01.193Z,24.14
2018-08-06T21:05:30.164Z,24.04
2018-08-06T21:07:59.355Z,24.01
2018-08-06T21:10:28.804Z,23.85
2018-08-06T21:12:58.084Z,23.80
2018-08-06T21:15:27.768Z,23.70
2018-08-06T21:17:57.217Z,23.56
2018-08-06T21:20:26.376Z,23.46
2018-08-06T21:22:57.152Z,23.39
2018-08-06T21:25:26.376Z,23.21
2018-08-06T21:27:55.609Z,23.23
2018-08-06T21:30:24.909Z,23.22
2018-08-06T21:32:57.100Z,23.22
2018-08-06T21:35:27.705Z,23.22
2018-08-06T21:37:57.160Z,23.21
2018-08-06T21:40:27.339Z,23.17
2018-08-06T21:42:57.324Z,23.12
2018-08-06T21:45:26.548Z,23.01
2018-08-06T21:47:56.101Z,22.98
2018-08-06T21:50:25.255Z,22.92
2018-08-06T21:52:54.497Z,22.93
2018-08-06T21:55:23.664Z,22.77
2018-08-06T21:57:52.864Z,22.70
2018-08-06T22:00:40.164Z,22.70
2018-08-06T22:03:14.176Z,22.65
2018-08-06T22:05:43.675Z,22.62
2018-08-06T22:08:12.956Z,22.49
2018-08-06T22:10:42.072Z,22.40
2018-08-06T22:13:11.913Z,22.38
2018-08-06T22:15:40.959Z,22.35
2018-08-06T22:18:11.893Z,22.27
2018-08-06T22:20:41.460Z,22.22
2018-08-06T22:23:10.749Z,22.15
2018-08-06T22:25:39.940Z,22.18
2018-08-06T22:28:12.271Z,22.24
2018-08-06T22:30:41.700Z,22.16
2018-08-06T22:33:10.936Z,22.19
2018-08-06T22:35:40.140Z,22.14
2018-08-06T22:38:09.296Z,22.14
2018-08-06T22:40:38.502Z,22.07
2018-08-06T22:43:07.923Z,22.07
2018-08-06T22:45:37.232Z,21.99
2018-08-06T22:48:06.928Z,21.92
2018-08-06T22:50:36.420Z,21.89
2018-08-06T22:53:06.237Z,21.82
2018-08-06T22:56:00.996Z,21.78
2018-08-06T22:58:30.110Z,21.61
2018-08-06T23:01:00.388Z,21.65
2018-08-06T23:03:29.221Z,21.52
2018-08-06T23:05:58.335Z,21.44
2018-08-06T23:08:27.448Z,21.43
2018-08-06T23:10:56.616Z,21.35
2018-08-06T23:13:25.864Z,21.32
2018-08-06T23:15:55.344Z,21.26
2018-08-06T23:18:24.447Z,21.20
2018-08-06T23:20:53.610Z,21.17
2018-08-06T23:23:22.683Z,21.06
2018-08-06T23:25:52.052Z,21.07
2018-08-06T23:28:21.228Z,21.08
2018-08-06T23:30:50.428Z,21.02
2018-08-06T23:33:19.703Z,21.00
2018-08-06T23:35:48.811Z,21.02
2018-08-06T23:38:18.020Z,21.05
2018-08-06T23:40:47.672Z,21.08
2018-08-06T23:43:16.798Z,21.06
2018-08-06T23:45:46.432Z,20.93
2018-08-06T23:48:15.515Z,20.90
2018-08-06T23:50:44.703Z,20.77
2018-08-06T23:53:14.060Z,20.75
2018-08-06T23:55:43.004Z,20.70
2018-08-06T23:58:12.201Z,20.62
